Time;durP1;ratioP1;P1;durP2;ratioP2;P2;SDS_P1;SDS_P2;PMS_P1;PMS_P2;Temp;Humidity;BMP_temperature;BMP_pressure;BME280_temperature;BME280_humidity;BME280_pressure;Samples;Min_cycle;Max_cycle;Signal;HPM_P1;HPM_P2
2021/08/15 00:00:41;;;;;;;7.03;4.33;;;18.80;99.90;;;;;;5050735;28;20174;-69
2021/08/15 00:03:09;;;;;;;8.47;4.43;;;18.80;99.90;;;;;;5052058;28;20602;-70
2021/08/15 00:05:34;;;;;;;5.23;3.80;;;18.70;99.90;;;;;;5054359;28;20182;-70
2021/08/15 00:08:00;;;;;;;6.60;4.50;;;18.60;99.90;;;;;;5051426;28;20479;-69
2021/08/15 00:10:25;;;;;;;5.57;5.00;;;18.50;99.90;;;;;;5036073;28;20271;-70
2021/08/15 00:12:51;;;;;;;7.83;4.77;;;18.50;99.90;;;;;;5046639;28;20193;-69
2021/08/15 00:15:16;;;;;;;7.90;4.60;;;18.40;99.90;;;;;;5052384;28;20170;-70
2021/08/15 00:17:42;;;;;;;7.03;5.07;;;18.30;99.90;;;;;;5034192;28;20189;-70
2021/08/15 00:20:11;;;;;;;7.37;4.43;;;18.30;99.90;;;;;;5044251;28;20181;-69
2021/08/15 00:22:38;;;;;;;6.90;4.90;;;18.30;99.90;;;;;;5053936;28;20200;-69
2021/08/15 00:25:09;;;;;;;7.83;5.27;;;18.20;99.90;;;;;;5053906;28;20923;-70
2021/08/15 00:27:35;;;;;;;8.70;4.67;;;18.20;99.90;;;;;;5053831;28;20406;-69
2021/08/15 00:30:01;;;;;;;7.60;5.33;;;18.10;99.90;;;;;;5053854;28;20462;-70
2021/08/15 00:32:26;;;;;;;7.00;5.03;;;18.00;99.90;;;;;;5053565;28;20924;-70
2021/08/15 00:34:52;;;;;;;6.13;5.53;;;18.00;99.90;;;;;;5053871;28;20633;-69
2021/08/15 00:37:17;;;;;;;8.17;4.57;;;17.90;99.90;;;;;;5053900;28;20175;-70
2021/08/15 00:39:43;;;;;;;7.37;4.73;;;17.90;99.90;;;;;;5053713;28;20188;-70
2021/08/15 00:42:08;;;;;;;5.53;5.00;;;17.80;99.90;;;;;;5053370;28;20198;-69
2021/08/15 00:44:34;;;;;;;6.77;5.00;;;17.80;99.90;;;;;;5053702;28;20654;-70
2021/08/15 00:47:00;;;;;;;9.97;5.20;;;17.80;99.90;;;;;;5053433;28;20198;-70
2021/08/15 00:49:25;;;;;;;8.07;5.30;;;17.80;99.90;;;;;;5053509;28;20200;-69
2021/08/15 00:51:51;;;;;;;7.03;5.60;;;17.80;99.90;;;;;;5053336;28;20186;-69
2021/08/15 00:54:17;;;;;;;10.80;5.20;;;17.70;99.90;;;;;;5053346;28;20169;-71
2021/08/15 00:56:49;;;;;;;5.60;4.50;;;17.70;99.90;;;;;;5053245;28;20236;-70
2021/08/15 00:59:15;;;;;;;5.10;4.30;;;17.60;99.90;;;;;;5053327;28;20495;-70
2021/08/15 01:01:40;;;;;;;6.87;5.10;;;17.60;99.90;;;;;;5051732;28;20879;-69
2021/08/15 01:04:07;;;;;;;9.73;5.07;;;17.60;99.90;;;;;;5053178;28;20446;-70
2021/08/15 01:06:34;;;;;;;9.20;5.00;;;17.60;99.90;;;;;;5053302;28;20238;-70
2021/08/15 01:09:03;;;;;;;8.10;4.20;;;17.50;99.90;;;;;;5053143;28;21117;-70
2021/08/15 01:11:31;;;;;;;5.67;4.23;;;17.50;99.90;;;;;;5052898;28;20431;-70
2021/08/15 01:13:57;;;;;;;6.50;4.57;;;17.50;99.90;;;;;;5038719;28;20408;-70
2021/08/15 01:16:22;;;;;;;6.97;4.93;;;17.40;99.90;;;;;;5032995;28;20703;-70
2021/08/15 01:18:48;;;;;;;5.63;4.30;;;17.40;99.90;;;;;;5033069;28;20169;-70
2021/08/15 01:21:13;;;;;;;8.20;4.60;;;17.40;99.90;;;;;;5069481;28;20196;-70
2021/08/15 01:23:42;;;;;;;8.23;4.60;;;17.40;99.90;;;;;;5072866;28;20172;-69
2021/08/15 01:26:09;;;;;;;7.73;4.20;;;17.40;99.90;;;;;;5072816;28;20168;-70
2021/08/15 01:28:35;;;;;;;7.97;4.70;;;17.40;99.90;;;;;;5072528;28;20538;-69
2021/08/15 01:31:00;;;;;;;4.80;3.50;;;17.40;99.90;;;;;;5072505;28;20429;-69
2021/08/15 01:33:34;;;;;;;4.97;3.30;;;17.40;99.90;;;;;;5072662;28;20168;-69
2021/08/15 01:36:01;;;;;;;5.43;3.90;;;17.30;99.90;;;;;;5072932;28;20179;-69
2021/08/15 01:38:30;;;;;;;12.70;4.80;;;17.30;99.90;;;;;;5034804;28;20829;-70
2021/08/15 01:40:56;;;;;;;6.17;4.50;;;17.20;99.90;;;;;;5043445;28;20418;-70
2021/08/15 01:43:22;;;;;;;5.50;4.40;;;17.20;99.90;;;;;;5052505;28;20448;-70
2021/08/15 01:45:48;;;;;;;6.47;5.27;;;17.20;99.90;;;;;;5052515;28;20437;-69
2021/08/15 01:48:14;;;;;;;9.23;4.83;;;17.20;99.90;;;;;;5052218;28;20831;-69
2021/08/15 01:50:40;;;;;;;8.93;4.93;;;17.20;99.90;;;;;;5052377;28;20255;-70
2021/08/15 01:53:14;;;;;;;6.73;4.00;;;17.20;99.90;;;;;;5052138;28;20169;-69
2021/08/15 01:55:40;;;;;;;6.60;4.00;;;17.10;99.90;;;;;;5052093;28;20495;-69
2021/08/15 01:58:07;;;;;;;9.00;4.10;;;17.20;99.90;;;;;;5052068;28;20418;-70
2021/08/15 02:00:33;;;;;;;6.00;4.20;;;17.10;99.90;;;;;;5052358;28;20402;-70
2021/08/15 02:02:59;;;;;;;6.80;5.00;;;17.00;99.90;;;;;;5051853;28;20449;-70
2021/08/15 02:05:24;;;;;;;4.30;3.87;;;17.00;99.90;;;;;;5035551;28;20790;-70
2021/08/15 02:07:54;;;;;;;6.63;4.30;;;17.00;99.90;;;;;;5031937;28;20158;-70
2021/08/15 02:10:24;;;;;;;6.50;4.60;;;16.90;99.90;;;;;;5032405;28;20198;-70
2021/08/15 02:12:51;;;;;;;10.13;4.20;;;16.90;99.90;;;;;;5032179;28;20921;-69
2021/08/15 02:15:17;;;;;;;4.63;4.03;;;16.80;99.90;;;;;;5032177;28;20738;-70
2021/08/15 02:17:42;;;;;;;8.00;5.07;;;16.80;99.90;;;;;;5032190;28;20413;-70
2021/08/15 02:20:08;;;;;;;5.10;4.60;;;16.80;99.90;;;;;;5032139;28;20427;-69
2021/08/15 02:22:33;;;;;;;10.43;4.90;;;16.70;99.90;;;;;;5032331;28;20188;-70
2021/08/15 02:24:59;;;;;;;5.77;4.20;;;16.70;99.90;;;;;;5032954;28;20416;-70
2021/08/15 02:27:25;;;;;;;7.53;4.20;;;16.70;99.90;;;;;;5032839;28;20172;-69
2021/08/15 02:29:50;;;;;;;10.23;4.60;;;16.70;99.90;;;;;;5031700;28;20547;-69
2021/08/15 02:32:16;;;;;;;7.37;4.87;;;16.70;99.90;;;;;;5031514;28;20571;-70
2021/08/15 02:34:42;;;;;;;6.77;4.03;;;16.70;99.90;;;;;;5031808;28;20166;-70
2021/08/15 02:37:07;;;;;;;6.57;4.43;;;16.80;99.90;;;;;;5032080;28;20217;-70
2021/08/15 02:39:32;;;;;;;8.93;4.67;;;16.70;99.90;;;;;;5031718;28;20176;-70
2021/08/15 02:41:58;;;;;;;7.80;4.70;;;16.70;99.90;;;;;;5031631;28;20662;-70
2021/08/15 02:44:23;;;;;;;6.17;4.70;;;16.70;99.90;;;;;;5031989;28;20176;-69
2021/08/15 02:46:49;;;;;;;8.63;4.80;;;16.80;99.90;;;;;;5031708;28;20206;-69
2021/08/15 02:49:14;;;;;;;9.97;4.70;;;16.80;99.90;;;;;;5031342;28;20558;-70
2021/08/15 02:51:40;;;;;;;8.43;5.00;;;16.70;99.90;;;;;;5031509;28;20191;-70
2021/08/15 02:54:05;;;;;;;6.07;4.67;;;16.70;99.90;;;;;;5031307;28;20169;-70
2021/08/15 02:56:31;;;;;;;9.20;5.03;;;16.60;99.90;;;;;;5031242;28;20169;-69
2021/08/15 02:58:56;;;;;;;6.50;4.57;;;16.60;99.90;;;;;;5031227;28;20171;-69
2021/08/15 03:01:22;;;;;;;5.40;4.30;;;16.60;99.90;;;;;;5031221;28;20770;-70
2021/08/15 03:03:47;;;;;;;7.10;4.80;;;16.60;99.90;;;;;;5031158;28;20214;-70
2021/08/15 03:06:12;;;;;;;7.60;5.33;;;16.50;99.90;;;;;;5029770;28;20248;-70
2021/08/15 03:08:38;;;;;;;5.43;4.67;;;16.50;99.90;;;;;;5031047;28;20200;-69
2021/08/15 03:11:03;;;;;;;9.73;5.80;;;16.50;99.90;;;;;;5031051;28;20654;-70
2021/08/15 03:13:29;;;;;;;8.90;5.43;;;16.50;99.90;;;;;;5029878;28;20182;-70
2021/08/15 03:15:54;;;;;;;8.50;4.30;;;16.60;99.90;;;;;;5031135;28;20761;-69
2021/08/15 03:18:20;;;;;;;6.93;4.97;;;16.60;99.90;;;;;;5030959;28;20192;-70
2021/08/15 03:20:45;;;;;;;7.50;4.47;;;16.60;99.90;;;;;;5030928;28;20176;-70
2021/08/15 03:23:11;;;;;;;6.73;4.80;;;16.50;99.90;;;;;;5031008;28;20228;-69
2021/08/15 03:25:37;;;;;;;7.40;4.97;;;16.40;99.90;;;;;;5031028;28;20177;-70
2021/08/15 03:28:05;;;;;;;9.40;5.27;;;16.40;99.90;;;;;;5031564;28;20408;-70
2021/08/15 03:30:30;;;;;;;12.40;5.10;;;16.50;99.90;;;;;;5031469;28;20411;-70
2021/08/15 03:32:56;;;;;;;7.07;4.90;;;16.60;99.90;;;;;;5031433;28;20502;-70
2021/08/15 03:35:21;;;;;;;5.50;4.60;;;16.50;99.90;;;;;;5031731;28;20759;-70
2021/08/15 03:37:47;;;;;;;9.43;5.37;;;16.40;99.90;;;;;;5034032;28;20237;-70
2021/08/15 03:40:12;;;;;;;6.87;4.73;;;16.40;99.90;;;;;;5035399;28;20577;-69
2021/08/15 03:42:38;;;;;;;10.00;5.07;;;16.40;99.90;;;;;;5035196;28;20197;-71
2021/08/15 03:45:08;;;;;;;9.97;4.70;;;16.30;99.90;;;;;;5035218;28;20203;-70
2021/08/15 03:47:34;;;;;;;9.20;4.30;;;16.30;99.90;;;;;;5035012;28;20406;-70
2021/08/15 03:50:01;;;;;;;10.53;5.57;;;16.30;99.90;;;;;;5034870;28;20446;-71
2021/08/15 03:52:27;;;;;;;7.93;5.23;;;16.30;99.90;;;;;;5034448;28;20435;-70
2021/08/15 03:54:52;;;;;;;6.27;4.93;;;16.30;99.90;;;;;;5034827;28;20414;-70
2021/08/15 03:57:18;;;;;;;6.37;5.30;;;16.30;99.90;;;;;;5034792;28;20543;-70
2021/08/15 03:59:44;;;;;;;16.20;5.20;;;16.30;99.90;;;;;;5034767;28;20167;-70
2021/08/15 04:02:10;;;;;;;6.90;5.03;;;16.30;99.90;;;;;;5034742;28;20562;-71
2021/08/15 04:04:36;;;;;;;12.23;5.60;;;16.40;99.90;;;;;;5034756;28;20469;-70
2021/08/15 04:07:01;;;;;;;5.87;4.87;;;16.40;99.90;;;;;;5034962;28;20670;-69
2021/08/15 04:09:27;;;;;;;9.20;5.33;;;16.40;99.90;;;;;;5034859;28;20208;-69
2021/08/15 04:11:52;;;;;;;9.53;4.53;;;16.50;99.90;;;;;;5034529;28;20188;-70
2021/08/15 04:14:18;;;;;;;7.30;4.37;;;16.40;99.90;;;;;;5034655;28;20307;-70
2021/08/15 04:16:43;;;;;;;11.60;4.90;;;16.40;99.90;;;;;;5034335;28;20176;-68
2021/08/15 04:19:09;;;;;;;8.53;4.47;;;16.50;99.90;;;;;;5034427;28;20185;-71
2021/08/15 04:21:34;;;;;;;6.90;4.50;;;16.60;99.90;;;;;;5034346;28;20193;-70
2021/08/15 04:24:00;;;;;;;7.50;4.90;;;16.60;99.90;;;;;;5034458;28;20189;-69
2021/08/15 04:26:25;;;;;;;6.60;4.53;;;16.60;99.90;;;;;;5034285;28;20195;-70
2021/08/15 04:28:51;;;;;;;6.77;4.30;;;16.60;99.90;;;;;;5034281;28;20339;-70
2021/08/15 04:31:16;;;;;;;8.87;4.37;;;16.60;99.90;;;;;;5034018;28;20188;-70
2021/08/15 04:33:42;;;;;;;9.50;4.87;;;16.60;99.90;;;;;;5034125;28;20187;-71
2021/08/15 04:36:07;;;;;;;6.33;4.20;;;16.70;99.90;;;;;;5034305;28;20180;-70
2021/08/15 04:38:33;;;;;;;5.90;4.40;;;16.70;99.90;;;;;;5034294;28;20561;-70
2021/08/15 04:40:59;;;;;;;8.40;4.63;;;16.70;99.90;;;;;;5034249;28;20203;-70
2021/08/15 04:43:24;;;;;;;8.90;4.50;;;16.80;99.90;;;;;;5034187;28;20584;-70
2021/08/15 04:45:49;;;;;;;8.97;4.40;;;16.80;99.90;;;;;;5034332;28;20176;-70
2021/08/15 04:48:15;;;;;;;9.73;4.40;;;16.80;99.90;;;;;;5033269;28;20176;-70
2021/08/15 04:50:42;;;;;;;7.67;4.60;;;16.90;99.90;;;;;;5034322;28;20267;-70
2021/08/15 04:53:08;;;;;;;5.50;4.03;;;17.20;99.90;;;;;;5033665;28;20173;-70
2021/08/15 04:55:33;;;;;;;5.53;4.30;;;17.20;99.90;;;;;;5033941;28;20407;-70
2021/08/15 04:57:59;;;;;;;7.50;4.10;;;17.20;99.90;;;;;;5033508;28;20529;-70
2021/08/15 05:00:25;;;;;;;7.30;4.20;;;17.20;99.90;;;;;;5033728;28;20181;-69
2021/08/15 05:02:51;;;;;;;8.43;4.67;;;17.30;99.90;;;;;;5033304;28;20221;-70
2021/08/15 05:05:16;;;;;;;8.10;4.43;;;17.30;99.90;;;;;;5033628;28;20880;-70
2021/08/15 05:07:42;;;;;;;9.90;4.00;;;17.40;99.90;;;;;;5033397;28;20177;-70
2021/08/15 05:10:08;;;;;;;12.10;4.70;;;17.50;99.90;;;;;;5033557;28;20666;-70
2021/08/15 05:12:33;;;;;;;4.30;3.90;;;17.60;99.90;;;;;;5033311;28;20640;-70
2021/08/15 05:14:59;;;;;;;5.30;4.20;;;17.70;99.90;;;;;;5033702;28;20815;-70
2021/08/15 05:17:24;;;;;;;8.93;4.80;;;17.70;99.90;;;;;;5033759;28;20705;-70
2021/08/15 05:19:49;;;;;;;6.23;4.00;;;17.80;99.90;;;;;;5033702;28;20276;-70
2021/08/15 05:22:15;;;;;;;8.37;3.70;;;17.90;99.90;;;;;;5033212;28;20198;-68
2021/08/15 05:24:41;;;;;;;7.80;3.73;;;18.00;99.90;;;;;;5033232;28;20170;-70
2021/08/15 05:27:06;;;;;;;6.57;3.27;;;18.10;99.90;;;;;;5033491;28;20217;-70
2021/08/15 05:29:32;;;;;;;6.87;3.33;;;18.10;99.90;;;;;;5033224;28;20210;-69
2021/08/15 05:31:57;;;;;;;7.40;3.97;;;18.40;99.90;;;;;;5032999;28;20206;-69
2021/08/15 05:34:23;;;;;;;8.20;3.77;;;18.70;99.90;;;;;;5033174;28;20664;-70
2021/08/15 05:36:48;;;;;;;8.00;3.50;;;19.00;99.90;;;;;;5033281;28;20231;-70
2021/08/15 05:39:14;;;;;;;5.53;3.47;;;19.30;99.90;;;;;;5033302;28;20177;-70
2021/08/15 05:41:39;;;;;;;9.40;3.20;;;19.70;99.90;;;;;;5033148;28;20683;-70
2021/08/15 05:44:05;;;;;;;7.27;3.27;;;20.50;99.90;;;;;;5033594;28;20180;-71
2021/08/15 05:46:30;;;;;;;7.00;3.63;;;20.50;99.90;;;;;;5032708;28;20216;-70
2021/08/15 05:48:56;;;;;;;5.33;4.10;;;20.40;99.90;;;;;;5032518;28;20207;-70
2021/08/15 05:51:21;;;;;;;5.20;3.40;;;21.20;99.90;;;;;;5031218;28;20285;-70
2021/08/15 05:53:47;;;;;;;7.77;3.10;;;21.40;99.90;;;;;;5032756;28;20168;-69
2021/08/15 05:56:13;;;;;;;5.33;3.70;;;22.50;99.90;;;;;;5032515;28;20643;-69
2021/08/15 05:58:38;;;;;;;5.70;3.43;;;22.60;99.90;;;;;;5032048;28;20187;-68
2021/08/15 06:01:04;;;;;;;11.00;3.73;;;23.10;99.90;;;;;;5035768;28;20445;-69
2021/08/15 06:03:29;;;;;;;6.30;3.70;;;22.40;99.90;;;;;;5040092;28;20194;-70
2021/08/15 06:05:55;;;;;;;6.13;3.47;;;22.50;99.90;;;;;;5033281;28;20214;-69
2021/08/15 06:08:20;;;;;;;7.37;3.27;;;22.90;99.90;;;;;;5032472;28;20645;-69
2021/08/15 06:10:46;;;;;;;4.10;3.30;;;22.60;99.90;;;;;;5033002;28;20174;-69
2021/08/15 06:13:11;;;;;;;6.23;3.13;;;22.80;99.90;;;;;;5032257;28;20170;-69
2021/08/15 06:15:37;;;;;;;4.87;3.00;;;24.00;99.90;;;;;;5031926;28;20180;-69
2021/08/15 06:18:03;;;;;;;10.33;3.30;;;23.30;99.90;;;;;;5033289;28;20201;-70
2021/08/15 06:20:28;;;;;;;5.70;3.47;;;23.10;99.90;;;;;;5032410;28;20179;-70
2021/08/15 06:22:54;;;;;;;8.00;3.60;;;22.90;99.90;;;;;;5031942;28;20198;-70
2021/08/15 06:25:20;;;;;;;6.00;2.87;;;23.00;99.90;;;;;;5031843;28;20641;-69
2021/08/15 06:27:45;;;;;;;7.37;3.30;;;23.30;99.90;;;;;;5031736;28;20642;-68
2021/08/15 06:30:16;;;;;;;6.27;3.50;;;23.70;99.90;;;;;;5031736;28;20195;-69
2021/08/15 06:32:49;;;;;;;7.47;3.23;;;23.90;99.90;;;;;;5032053;28;20198;-69
2021/08/15 06:35:16;;;;;;;5.77;3.40;;;24.10;99.90;;;;;;5032816;28;20491;-70
2021/08/15 06:37:42;;;;;;;7.53;3.60;;;24.30;99.90;;;;;;5031688;28;20403;-69
2021/08/15 06:40:08;;;;;;;3.40;2.83;;;25.10;99.90;;;;;;5031566;28;20923;-69
2021/08/15 06:42:33;;;;;;;6.33;3.00;;;26.10;99.90;;;;;;5031397;28;20191;-69
2021/08/15 06:44:59;;;;;;;7.63;3.80;;;25.40;99.90;;;;;;5031528;28;20448;-72
2021/08/15 06:47:24;;;;;;;8.00;3.43;;;26.30;99.90;;;;;;5031166;28;20182;-70
2021/08/15 06:49:50;;;;;;;5.93;3.73;;;25.70;99.90;;;;;;5031265;28;20199;-69
2021/08/15 06:52:15;;;;;;;6.10;3.50;;;26.00;99.90;;;;;;5031259;28;20279;-70
2021/08/15 06:54:40;;;;;;;8.33;3.93;;;24.90;99.90;;;;;;5031318;28;20175;-70
2021/08/15 06:57:06;;;;;;;6.23;3.47;;;24.80;99.90;;;;;;5031332;28;20258;-69
2021/08/15 06:59:31;;;;;;;6.67;3.70;;;25.60;99.90;;;;;;5031648;28;20221;-69
2021/08/15 07:01:57;;;;;;;5.87;3.57;;;26.20;99.90;;;;;;5038895;28;20198;-69
2021/08/15 07:04:22;;;;;;;4.80;4.00;;;25.90;99.90;;;;;;5051235;28;20186;-70
2021/08/15 07:06:48;;;;;;;6.23;3.20;;;25.10;99.90;;;;;;5050959;28;20704;-67
2021/08/15 07:09:13;;;;;;;5.23;3.50;;;25.00;99.90;;;;;;5050857;28;20198;-70
2021/08/15 07:11:39;;;;;;;5.53;3.60;;;24.40;99.90;;;;;;5055142;28;20234;-69
2021/08/15 07:14:04;;;;;;;7.93;3.90;;;23.70;99.90;;;;;;5057627;28;20670;-70
2021/08/15 07:16:30;;;;;;;8.13;3.90;;;23.50;99.90;;;;;;5057835;28;20166;-70
2021/08/15 07:18:55;;;;;;;7.13;3.57;;;23.70;99.90;;;;;;5057984;28;20180;-70
2021/08/15 07:21:21;;;;;;;5.60;3.03;;;23.60;99.90;;;;;;5057432;28;20194;-69
2021/08/15 07:23:46;;;;;;;6.93;3.60;;;24.70;99.90;;;;;;5057560;28;20182;-72
2021/08/15 07:26:12;;;;;;;4.90;3.20;;;24.10;99.90;;;;;;5057701;28;20259;-71
2021/08/15 07:28:37;;;;;;;8.17;4.17;;;23.80;99.90;;;;;;5057489;28;20556;-69
2021/08/15 07:31:03;;;;;;;6.17;3.20;;;24.50;99.90;;;;;;5057423;28;20243;-70
2021/08/15 07:33:28;;;;;;;55.73;5.20;;;23.70;99.90;;;;;;5057625;28;20868;-70
2021/08/15 07:35:53;;;;;;;13.30;7.20;;;23.80;99.90;;;;;;5057564;28;20169;-70
2021/08/15 07:38:21;;;;;;;7.70;3.67;;;23.50;99.90;;;;;;5057489;28;20246;-69
2021/08/15 07:40:47;;;;;;;9.07;4.43;;;24.30;99.90;;;;;;5057574;28;20254;-70
2021/08/15 07:43:12;;;;;;;5.97;4.20;;;24.10;99.90;;;;;;5057268;28;20990;-69
2021/08/15 07:45:38;;;;;;;5.73;4.20;;;24.10;99.90;;;;;;5058714;28;20529;-70
2021/08/15 07:48:04;;;;;;;5.40;3.40;;;25.70;99.90;;;;;;5057349;28;20167;-69
2021/08/15 07:50:36;;;;;;;5.67;3.40;;;26.30;99.90;;;;;;5056018;28;20255;-69
2021/08/15 07:53:21;;;;;;;5.33;4.00;;;25.50;99.90;;;;;;5057329;28;21039;-69
2021/08/15 07:55:48;;;;;;;6.70;4.07;;;26.20;99.90;;;;;;5057171;28;20852;-70
2021/08/15 07:58:13;;;;;;;6.70;3.60;;;25.70;99.90;;;;;;5057280;28;20480;-70
2021/08/15 08:00:39;;;;;;;6.93;3.90;;;24.90;99.90;;;;;;5057299;28;20432;-69
2021/08/15 08:03:05;;;;;;;5.20;3.93;;;26.10;99.90;;;;;;5056928;28;20211;-70
2021/08/15 08:05:31;;;;;;;7.50;5.03;;;26.10;99.90;;;;;;5057300;28;20696;-69
2021/08/15 08:07:56;;;;;;;8.77;4.03;;;25.10;99.90;;;;;;5057328;28;20561;-70
2021/08/15 08:10:22;;;;;;;4.00;3.10;;;24.30;99.90;;;;;;5056034;28;20205;-69
2021/08/15 08:12:48;;;;;;;6.37;3.53;;;25.20;99.90;;;;;;5057256;28;20622;-70
2021/08/15 08:15:13;;;;;;;5.30;3.00;;;25.60;99.90;;;;;;5057812;28;20672;-69
2021/08/15 08:17:39;;;;;;;4.90;3.57;;;25.40;99.90;;;;;;5057755;28;20510;-70
2021/08/15 08:20:05;;;;;;;6.40;3.60;;;25.90;99.90;;;;;;5057695;28;20456;-69
2021/08/15 08:22:31;;;;;;;4.97;3.17;;;26.40;99.90;;;;;;5055200;28;20201;-69
2021/08/15 08:24:56;;;;;;;5.03;4.23;;;26.60;99.90;;;;;;5054127;28;20425;-71
2021/08/15 08:27:22;;;;;;;4.90;2.87;;;25.70;99.90;;;;;;5054897;28;20248;-71
2021/08/15 08:29:48;;;;;;;6.77;3.73;;;26.20;99.90;;;;;;5054543;28;20233;-70
2021/08/15 08:32:14;;;;;;;6.70;3.43;;;26.90;99.90;;;;;;5054517;28;20195;-70
2021/08/15 08:34:39;;;;;;;4.07;3.67;;;26.10;99.90;;;;;;5054496;28;20414;-70
2021/08/15 08:37:05;;;;;;;6.00;3.63;;;26.00;99.90;;;;;;5054806;28;20171;-71
2021/08/15 08:39:30;;;;;;;5.57;3.40;;;27.40;99.90;;;;;;5054799;28;20709;-71
2021/08/15 08:42:00;;;;;;;5.50;3.50;;;26.50;99.90;;;;;;5053859;28;20692;-70
2021/08/15 08:44:32;;;;;;;5.83;3.17;;;26.70;99.90;;;;;;5053514;28;20183;-70
2021/08/15 08:47:06;;;;;;;6.10;4.20;;;26.20;99.90;;;;;;5052702;28;20422;-69
2021/08/15 08:49:37;;;;;;;5.93;3.97;;;27.30;99.90;;;;;;5058836;28;20502;-69
2021/08/15 08:52:03;;;;;;;5.93;3.63;;;27.70;99.40;;;;;;5048223;28;20837;-70
2021/08/15 08:54:30;;;;;;;4.93;3.40;;;26.90;99.00;;;;;;5053724;28;20881;-70
2021/08/15 08:56:55;;;;;;;5.20;3.17;;;26.40;99.90;;;;;;5068536;28;20530;-70
2021/08/15 08:59:21;;;;;;;4.87;3.60;;;26.50;99.90;;;;;;5074067;28;20847;-70
2021/08/15 09:01:47;;;;;;;5.00;3.70;;;26.50;99.90;;;;;;5074215;28;20212;-70
2021/08/15 09:04:13;;;;;;;6.63;3.40;;;26.40;99.90;;;;;;5041275;28;20436;-70
2021/08/15 09:06:39;;;;;;;4.50;3.60;;;26.50;99.10;;;;;;5037981;28;20178;-71
2021/08/15 09:09:17;;;;;;;3.23;2.93;;;26.50;99.90;;;;;;5038887;28;20462;-71
2021/08/15 09:11:48;;;;;;;4.73;3.33;;;27.30;99.60;;;;;;5045059;28;20985;-70
2021/08/15 09:14:22;;;;;;;3.90;3.60;;;26.70;99.90;;;;;;5035132;28;20434;-68
2021/08/15 09:17:06;;;;;;;4.43;3.40;;;27.10;99.30;;;;;;5049760;28;20512;-68
2021/08/15 09:19:39;;;;;;;5.30;3.63;;;27.10;97.70;;;;;;5038581;28;20559;-70
2021/08/15 09:22:17;;;;;;;7.30;4.10;;;27.00;99.20;;;;;;5062485;28;20530;-71
2021/08/15 09:25:05;;;;;;;4.13;3.30;;;27.00;98.00;;;;;;5052740;28;20424;-69
2021/08/15 09:27:44;;;;;;;4.53;3.20;;;27.70;97.40;;;;;;5036290;28;20431;-70
2021/08/15 09:30:11;;;;;;;4.00;3.23;;;27.50;97.20;;;;;;5044152;28;20532;-71
2021/08/15 09:32:41;;;;;;;5.33;4.00;;;27.80;95.50;;;;;;5047017;28;20799;-71
2021/08/15 09:35:07;;;;;;;4.00;2.97;;;26.90;97.10;;;;;;5036859;28;20824;-71
2021/08/15 09:37:34;;;;;;;4.20;3.80;;;27.30;94.60;;;;;;5050372;28;20500;-69
2021/08/15 09:40:19;;;;;;;4.70;3.00;;;27.60;95.30;;;;;;5036389;28;20174;-69
2021/08/15 09:42:45;;;;;;;4.00;3.60;;;26.80;94.60;;;;;;5052830;28;20445;-70
2021/08/15 09:45:15;;;;;;;4.33;3.83;;;26.90;94.20;;;;;;5053365;28;20429;-70
2021/08/15 09:47:41;;;;;;;3.57;3.17;;;26.60;94.60;;;;;;5040642;28;20426;-69
2021/08/15 09:50:22;;;;;;;7.27;4.07;;;26.10;94.50;;;;;;5049122;28;20967;-70
2021/08/15 09:52:47;;;;;;;5.10;3.23;;;26.10;95.30;;;;;;5049021;28;20444;-69
2021/08/15 09:55:13;;;;;;;4.70;3.00;;;27.00;95.20;;;;;;5055685;28;20417;-67
2021/08/15 09:57:39;;;;;;;6.13;3.37;;;26.80;93.50;;;;;;5047735;28;20257;-68
2021/08/15 10:00:23;;;;;;;4.17;3.40;;;25.90;95.10;;;;;;5049729;28;20637;-68
2021/08/15 10:02:56;;;;;;;4.43;2.93;;;25.20;95.10;;;;;;5043780;28;20210;-68
2021/08/15 10:05:21;;;;;;;5.77;3.50;;;25.60;96.90;;;;;;5033782;28;20852;-69
2021/08/15 10:07:50;;;;;;;6.63;4.00;;;25.50;96.70;;;;;;5051852;28;20432;-66
2021/08/15 10:10:22;;;;;;;5.47;3.70;;;25.60;95.50;;;;;;5050839;28;20208;-68
2021/08/15 10:12:50;;;;;;;3.40;3.00;;;26.20;96.40;;;;;;5051933;28;21049;-67
2021/08/15 10:15:25;;;;;;;4.13;3.30;;;25.80;96.50;;;;;;5051316;28;20502;-68
2021/08/15 10:17:58;;;;;;;4.33;3.07;;;25.90;96.10;;;;;;5033383;28;20924;-68
2021/08/15 10:20:29;;;;;;;3.97;3.23;;;25.80;95.10;;;;;;5036118;28;20421;-68
2021/08/15 10:23:15;;;;;;;5.60;3.40;;;25.50;98.10;;;;;;5043220;28;20447;-73
2021/08/15 10:25:48;;;;;;;4.40;3.07;;;25.60;96.30;;;;;;5044440;28;20533;-72
2021/08/15 10:28:45;;;;;;;5.10;3.03;;;25.50;96.10;;;;;;5043685;28;20932;-70
2021/08/15 10:31:17;;;;;;;4.47;3.10;;;25.50;94.90;;;;;;5044100;28;20430;-70
2021/08/15 10:34:01;;;;;;;3.57;3.23;;;25.60;93.50;;;;;;5043208;28;20413;-70
2021/08/15 10:36:51;;;;;;;5.87;3.33;;;25.40;95.10;;;;;;5051096;28;20426;-69
2021/08/15 10:39:38;;;;;;;3.80;3.40;;;25.40;94.40;;;;;;5045523;28;20520;-68
2021/08/15 10:42:03;;;;;;;6.27;3.83;;;25.30;94.00;;;;;;5029732;28;20798;-69
2021/08/15 10:45:02;;;;;;;5.17;3.93;;;25.20;95.00;;;;;;5031652;28;20425;-69
2021/08/15 10:47:31;;;;;;;3.33;3.00;;;26.00;93.90;;;;;;5034437;28;20179;-68
2021/08/15 10:50:03;;;;;;;4.43;3.50;;;26.20;94.40;;;;;;5036297;28;20459;-69
2021/08/15 10:52:40;;;;;;;6.40;4.07;;;26.20;94.10;;;;;;5050802;28;20443;-67
2021/08/15 10:55:23;;;;;;;5.13;3.40;;;26.30;94.30;;;;;;5052099;28;20855;-68
2021/08/15 10:57:58;;;;;;;8.37;3.70;;;25.90;93.90;;;;;;5038298;28;21085;-69
2021/08/15 11:00:33;;;;;;;6.43;4.07;;;26.00;95.00;;;;;;5038351;28;20585;-69
2021/08/15 11:03:22;;;;;;;6.27;4.20;;;25.80;95.30;;;;;;5038931;28;20507;-69
2021/08/15 11:05:51;;;;;;;6.03;3.80;;;26.10;94.90;;;;;;5029932;28;20944;-68
2021/08/15 11:08:35;;;;;;;5.40;3.97;;;25.80;95.70;;;;;;5032706;28;20410;-69
2021/08/15 11:11:07;;;;;;;5.47;4.00;;;25.90;96.10;;;;;;5037698;28;20446;-68
2021/08/15 11:13:35;;;;;;;4.63;3.87;;;25.50;95.20;;;;;;5030730;28;20874;-68
2021/08/15 11:16:22;;;;;;;6.60;3.90;;;25.50;96.00;;;;;;5033742;28;20445;-68
2021/08/15 11:19:15;;;;;;;7.47;4.77;;;25.30;97.00;;;;;;5039285;28;20424;-69
2021/08/15 11:22:29;;;;;;;4.70;3.80;;;25.50;97.50;;;;;;5041784;28;20514;-68
2021/08/15 11:24:58;;;;;;;9.13;4.33;;;25.50;96.50;;;;;;5040365;28;20446;-70
2021/08/15 11:27:28;;;;;;;7.37;4.00;;;25.10;97.30;;;;;;5039834;28;20422;-71
2021/08/15 11:29:54;;;;;;;5.50;4.00;;;24.80;97.90;;;;;;5029396;28;20464;-68
2021/08/15 11:32:29;;;;;;;9.20;4.63;;;24.80;98.80;;;;;;5030279;28;20453;-68
2021/08/15 11:35:30;;;;;;;6.10;4.60;;;24.80;98.70;;;;;;5030827;28;20946;-69
2021/08/15 11:37:55;;;;;;;5.83;4.30;;;25.30;98.70;;;;;;5043511;28;20422;-69
2021/08/15 11:40:26;;;;;;;6.27;3.70;;;25.50;98.20;;;;;;5044506;28;20429;-69
2021/08/15 11:43:04;;;;;;;5.80;4.30;;;25.90;97.90;;;;;;5046204;28;20291;-69
2021/08/15 11:45:37;;;;;;;5.57;4.40;;;26.00;97.70;;;;;;5036178;28;20452;-68
2021/08/15 11:48:09;;;;;;;7.40;5.13;;;26.00;97.50;;;;;;5036868;28;20457;-69
2021/08/15 11:50:58;;;;;;;6.60;4.63;;;25.80;97.20;;;;;;5046843;28;20465;-68
2021/08/15 11:53:36;;;;;;;4.30;3.90;;;25.80;97.10;;;;;;5036300;28;20424;-68
2021/08/15 11:56:10;;;;;;;6.30;4.20;;;25.50;97.50;;;;;;5052503;28;20434;-69
2021/08/15 11:58:48;;;;;;;7.87;4.47;;;25.70;97.50;;;;;;5051665;28;20432;-69
2021/08/15 12:01:17;;;;;;;5.60;3.30;;;25.20;96.90;;;;;;5040763;28;20497;-69
2021/08/15 12:03:55;;;;;;;5.27;4.10;;;25.40;97.00;;;;;;5042431;28;20444;-67
2021/08/15 12:06:20;;;;;;;4.30;3.60;;;25.60;97.60;;;;;;5045257;28;20440;-67
2021/08/15 12:08:46;;;;;;;4.40;3.70;;;25.80;97.40;;;;;;5036776;28;20456;-68
2021/08/15 12:11:25;;;;;;;6.10;4.10;;;25.50;96.80;;;;;;5048585;28;20203;-69
2021/08/15 12:14:17;;;;;;;6.97;4.20;;;25.70;97.90;;;;;;5051148;28;20180;-68
2021/08/15 12:16:59;;;;;;;5.80;3.80;;;26.00;97.40;;;;;;5042033;28;20486;-69
2021/08/15 12:19:28;;;;;;;5.40;3.23;;;26.10;97.60;;;;;;5038945;28;20430;-70
2021/08/15 12:21:54;;;;;;;6.70;3.87;;;25.90;97.30;;;;;;5050743;28;20570;-69
2021/08/15 12:24:22;;;;;;;6.80;4.50;;;26.20;97.00;;;;;;5042156;28;20873;-70
2021/08/15 12:27:22;;;;;;;7.40;4.13;;;26.20;98.00;;;;;;5052588;28;20503;-70
2021/08/15 12:29:54;;;;;;;6.97;4.40;;;26.70;96.90;;;;;;5053372;28;20550;-71
2021/08/15 12:32:35;;;;;;;5.43;4.10;;;26.40;96.30;;;;;;5053465;28;20452;-70
2021/08/15 12:35:02;;;;;;;4.80;4.30;;;26.50;96.40;;;;;;5053524;28;20777;-70
2021/08/15 12:37:39;;;;;;;4.40;3.70;;;26.20;97.10;;;;;;5053608;28;20824;-70
2021/08/15 12:40:16;;;;;;;8.13;4.60;;;26.00;96.90;;;;;;5053495;28;20560;-70
2021/08/15 12:42:53;;;;;;;6.27;4.93;;;26.00;97.80;;;;;;5051806;28;20555;-70
2021/08/15 12:45:37;;;;;;;5.53;4.90;;;26.10;97.50;;;;;;5053173;28;20927;-70
2021/08/15 12:48:04;;;;;;;4.80;4.17;;;26.30;97.30;;;;;;5042620;28;20415;-70
2021/08/15 12:50:32;;;;;;;5.53;3.63;;;26.20;96.40;;;;;;5050254;28;20497;-69
2021/08/15 12:53:22;;;;;;;5.00;4.50;;;26.20;96.40;;;;;;5034212;28;20439;-69